Capitol Logistics 2535


KOAK
Metropolitan Oakland International Airport
Oakland, California, US
KMEM
Memphis International Airport
Memphis, Tennessee, US

Route Details

Aircraft Information
Primary: Boeing 747-400BCF
Backup: Boeing 767-300BDSF
Date Restrictions
Between:Nov 16, 2019
Dec 31, 2019
Route Data
Distance: 1561nm
Sched. Duration: 3h 35m
Avg. Duration: 3h 31m (-4m)
Times Flown: 6
Recm'd Route: HUSSH2 SYRAH Q128 JSICA MLF DVC LBL RZC BRBBQ3
Planned Altitude: 35,000ft
Origin Wx: KOAK 271653Z 29009KT 10SM FEW200 21/02 A3013 RMK AO2 SLP202 T02060017
Dest. Wx: KMEM 271726Z 05006KT 10SM OVC010 14/11 A3015 RMK AO2 T01440111
Notes: SEASONAL FLIGHT | FEDEX SURGE OPS CONTRACT

Financial History
Total Freight: 983,181lbs
Average Load: 163,864lbs/flt
Fuel Used: 339,166lbs
Avg. Fuel Used: 56,528lbs/flt
Fuel Expense: $315,424
Avg. Fuel Expense: $52,571
Avg. Fuel Cost: $0.93/lbs
Total Gross Income: $1,858,212
Pilot Pay: $1,344
Total Expenses: $200,999
Total Revenue: $1,336,347
Average Revenue: $309,702.01